Time;durP1;ratioP1;P1;durP2;ratioP2;P2;SDS_P1;SDS_P2;PMS_P1;PMS_P2;Temp;Humidity;BMP_temperature;BMP_pressure;BME280_temperature;BME280_humidity;BME280_pressure;Samples;Min_cycle;Max_cycle;Signal;HPM_P1;HPM_P2
2022/08/27 00:00:44;;;;;;;9.35;5.30;;;;;;;17.74;71.19;99799.91;1412786;91;22489;-80
2022/08/27 00:03:11;;;;;;;13.37;5.17;;;;;;;17.75;71.91;99798.38;1432144;90;21585;-82
2022/08/27 00:05:38;;;;;;;7.77;4.80;;;;;;;17.78;71.69;99794.46;1430262;90;23433;-84
2022/08/27 00:08:06;;;;;;;12.60;5.50;;;;;;;17.78;71.84;99798.48;1444120;90;21415;-83
2022/08/27 00:10:32;;;;;;;8.63;5.30;;;;;;;17.77;71.96;99793.61;1420527;90;21452;-84
2022/08/27 00:13:00;;;;;;;10.40;5.87;;;;;;;17.76;71.50;99789.83;1440829;90;21460;-83
2022/08/27 00:15:27;;;;;;;24.53;9.23;;;;;;;17.71;72.33;99793.64;1432390;90;21673;-84
2022/08/27 00:17:53;;;;;;;17.53;7.10;;;;;;;17.68;71.15;99784.70;1426636;90;22257;-84
2022/08/27 00:20:23;;;;;;;8.93;5.40;;;;;;;17.62;71.79;99782.86;1438492;90;21563;-80
2022/08/27 00:22:50;;;;;;;14.43;6.33;;;;;;;17.62;71.79;99782.86;1437567;90;22405;-83
2022/08/27 00:25:17;;;;;;;14.67;5.37;;;;;;;17.65;72.31;99782.44;1432563;89;21534;-82
2022/08/27 00:27:44;;;;;;;17.53;6.57;;;;;;;17.63;71.64;99782.63;1438777;90;21498;-83
2022/08/27 00:30:16;;;;;;;13.33;5.30;;;;;;;17.65;71.14;99787.79;1429289;90;21628;-84
2022/08/27 00:32:43;;;;;;;18.57;6.07;;;;;;;17.67;70.86;99789.75;1476379;90;21628;-84
2022/08/27 00:35:12;;;;;;;14.10;5.43;;;;;;;17.63;70.57;99781.81;1413959;90;21459;-82
2022/08/27 00:37:39;;;;;;;14.77;6.50;;;;;;;17.61;70.21;99783.38;1443942;90;21437;-83
2022/08/27 00:40:10;;;;;;;14.70;6.37;;;;;;;17.57;70.65;99781.61;1420708;90;21429;-79
2022/08/27 00:42:37;;;;;;;12.50;6.53;;;;;;;17.54;70.88;99786.05;1466442;90;22421;-83
2022/08/27 00:45:06;;;;;;;21.07;6.17;;;;;;;17.52;71.60;99782.78;1433203;90;21394;-82
2022/08/27 00:47:37;;;;;;;10.30;6.90;;;;;;;17.48;71.38;99789.56;1410430;90;21497;-81
2022/08/27 00:50:13;;;;;;;17.93;6.20;;;;;;;17.51;70.99;99781.64;1436378;90;21444;-81
2022/08/27 00:52:56;;;;;;;14.30;6.83;;;;;;;17.49;71.81;99784.53;1426406;90;21467;-82
2022/08/27 00:55:27;;;;;;;15.43;5.57;;;;;;;17.49;70.82;99787.21;1493512;90;21546;-82
2022/08/27 00:58:07;;;;;;;13.50;6.73;;;;;;;17.47;71.26;99781.23;1429245;90;22476;-82
2022/08/27 01:00:34;;;;;;;;;;;;;;;17.45;71.09;99776.60;1413047;91;21611;-82
2022/08/27 01:03:01;;;;;;;20.40;6.67;;;;;;;17.43;71.49;99779.17;1398655;91;20295;-82
2022/08/27 01:05:27;;;;;;;13.50;7.07;;;;;;;17.40;70.96;99782.27;1426216;90;21505;-83
2022/08/27 01:07:58;;;;;;;14.23;6.53;;;;;;;17.37;71.78;99784.84;1435418;90;21704;-82
2022/08/27 01:10:27;;;;;;;21.13;6.67;;;;;;;17.33;71.91;99783.10;1426862;90;21445;-83
2022/08/27 01:12:55;;;;;;;19.10;6.87;;;;;;;17.34;72.13;99786.59;1429626;90;22421;-83
2022/08/27 01:15:25;;;;;;;22.37;7.60;;;;;;;17.32;72.14;99787.30;1427373;90;21452;-82
2022/08/27 01:17:52;;;;;;;26.12;8.88;;;;;;;17.31;72.13;99785.67;1423808;90;21637;-82
2022/08/27 01:20:26;;;;;;;13.53;6.30;;;;;;;17.25;72.76;99782.49;1440006;90;21600;-82
2022/08/27 01:23:25;;;;;;;13.27;7.47;;;;;;;17.25;71.96;99785.16;1422384;90;21460;-81
2022/08/27 01:25:52;;;;;;;10.57;6.83;;;;;;;17.21;72.49;99783.95;1415375;90;21482;-84
2022/08/27 01:28:20;;;;;;;16.27;7.07;;;;;;;17.20;72.77;99779.61;1434870;91;21563;-83
2022/08/27 01:30:47;;;;;;;10.30;5.80;;;;;;;17.20;72.77;99782.28;1425163;91;21452;-82
2022/08/27 01:33:18;;;;;;;10.40;6.13;;;;;;;17.19;72.30;99781.98;1419382;91;21460;-82
2022/08/27 01:35:49;;;;;;;14.97;7.77;;;;;;;17.18;71.79;99777.67;1426659;91;21482;-80
2022/08/27 01:38:17;;;;;;;12.83;6.37;;;;;;;17.16;71.05;99781.88;1414600;91;22400;-81
2022/08/27 01:40:44;;;;;;;16.43;7.63;;;;;;;17.16;70.94;99786.41;1428055;91;22362;-80
2022/08/27 01:43:10;;;;;;;19.27;6.77;;;;;;;17.12;71.34;99785.48;1422496;91;21453;-84
2022/08/27 01:45:42;;;;;;;15.30;6.47;;;;;;;17.09;71.51;99797.08;1418529;91;21416;-82
2022/08/27 01:48:08;;;;;;;13.07;6.10;;;;;;;17.05;72.22;99794.52;1410640;91;21453;-81
2022/08/27 01:50:38;;;;;;;20.37;6.93;;;;;;;17.03;72.00;99793.41;1426080;91;22259;-84
2022/08/27 01:53:14;;;;;;;14.05;7.12;;;;;;;17.03;72.74;99792.07;1345771;92;21357;-84
2022/08/27 01:55:43;;;;;;;18.13;7.10;;;;;;;17.01;72.97;99795.45;1500737;91;21387;-82
2022/08/27 01:58:09;;;;;;;15.13;6.43;;;;;;;17.02;72.81;99799.77;1372240;91;21423;-83
2022/08/27 02:00:40;;;;;;;15.17;6.90;;;;;;;17.02;73.15;99802.44;1427166;91;21453;-83
2022/08/27 02:03:07;;;;;;;;;;;;;;;16.99;73.24;99800.17;1495028;91;21357;-82
2022/08/27 02:05:34;;;;;;;12.67;6.63;;;;;;;16.94;72.85;99809.31;1382950;91;20850;-83
2022/08/27 02:08:00;;;;;;;18.00;6.93;;;;;;;16.91;72.37;99809.20;1423469;91;21386;-83
2022/08/27 02:10:32;;;;;;;11.73;6.80;;;;;;;16.89;72.92;99805.11;1417126;91;21430;-83
2022/08/27 02:12:59;;;;;;;12.23;6.70;;;;;;;16.86;73.50;99812.17;1427665;91;21601;-82
2022/08/27 02:15:26;;;;;;;17.97;6.67;;;;;;;16.83;73.68;99812.59;1424197;91;22429;-85
2022/08/27 02:17:52;;;;;;;14.77;7.63;;;;;;;16.81;73.76;99814.66;1417938;91;21519;-83
2022/08/27 02:20:20;;;;;;;11.17;8.30;;;;;;;16.78;73.84;99803.86;1430577;91;22564;-84
2022/08/27 02:22:46;;;;;;;17.00;7.63;;;;;;;16.75;73.89;99806.09;1398541;91;21452;-84
2022/08/27 02:25:14;;;;;;;19.13;7.37;;;;;;;16.70;73.74;99802.16;1436372;91;21533;-83
2022/08/27 02:27:42;;;;;;;17.53;7.20;;;;;;;16.65;73.70;99803.27;1419421;91;21527;-84
2022/08/27 02:30:12;;;;;;;17.73;6.67;;;;;;;16.61;74.08;99810.05;1344547;91;21460;-83
2022/08/27 02:32:38;;;;;;;20.17;7.40;;;;;;;16.57;74.68;99811.98;1466814;91;22341;-82
2022/08/27 02:35:06;;;;;;;13.20;7.13;;;;;;;16.54;75.32;99813.20;1418660;91;21430;-84
2022/08/27 02:37:32;;;;;;;15.57;7.50;;;;;;;16.53;75.37;99806.23;1363952;91;21424;-81
2022/08/27 02:39:58;;;;;;;11.67;6.17;;;;;;;16.51;75.91;99806.94;1384270;91;21497;-84
2022/08/27 02:42:24;;;;;;;14.30;7.70;;;;;;;16.50;76.14;99810.64;1430292;91;21453;-83
2022/08/27 02:44:50;;;;;;;17.43;5.93;;;;;;;16.47;75.66;99809.71;1415736;91;21475;-85
2022/08/27 02:47:16;;;;;;;11.47;6.83;;;;;;;16.44;75.48;99816.27;1407935;91;21533;-82
2022/08/27 02:49:43;;;;;;;10.80;6.70;;;;;;;16.39;75.04;99812.03;1409974;91;21453;-83
2022/08/27 02:52:11;;;;;;;17.93;7.23;;;;;;;16.36;75.27;99812.44;1410752;92;21512;-85
2022/08/27 02:54:37;;;;;;;17.80;7.17;;;;;;;16.35;75.99;99811.32;1412462;92;22341;-84
2022/08/27 02:57:03;;;;;;;15.40;7.10;;;;;;;16.34;77.05;99813.17;1413442;92;21490;-83
2022/08/27 02:59:29;;;;;;;15.40;7.90;;;;;;;16.32;77.38;99811.20;1423250;91;21666;-84
2022/08/27 03:01:55;;;;;;;14.27;7.63;;;;;;;16.32;77.27;99808.53;1431286;91;21608;-83
2022/08/27 03:04:22;;;;;;;14.00;6.57;;;;;;;16.31;78.54;99811.39;1428842;91;21604;-83
2022/08/27 03:06:48;;;;;;;15.27;7.57;;;;;;;16.28;77.60;99811.80;1408978;92;21660;-84
2022/08/27 03:09:15;;;;;;;17.23;6.60;;;;;;;16.22;77.35;99812.89;1418345;92;22469;-83
2022/08/27 03:11:41;;;;;;;9.03;6.77;;;;;;;16.18;77.34;99808.98;1407313;92;21638;-85
2022/08/27 03:14:08;;;;;;;12.03;6.57;;;;;;;16.16;77.35;99810.20;1405676;92;21604;-85
2022/08/27 03:16:36;;;;;;;15.00;6.53;;;;;;;16.12;78.25;99809.79;1409314;91;21416;-85
2022/08/27 03:19:06;;;;;;;10.80;6.47;;;;;;;16.11;77.75;99808.16;1410189;91;21474;-83
2022/08/27 03:21:34;;;;;;;21.90;7.43;;;;;;;16.12;78.36;99804.45;1401451;90;21446;-86
2022/08/27 03:24:01;;;;;;;13.67;6.17;;;;;;;16.09;78.09;99804.84;1417197;91;21357;-85
2022/08/27 03:26:29;;;;;;;13.97;6.73;;;;;;;16.07;77.42;99808.22;1430556;91;21512;-85
2022/08/27 03:28:55;;;;;;;13.33;7.20;;;;;;;16.04;77.17;99801.95;1428321;91;21489;-85
2022/08/27 03:31:26;;;;;;;18.40;6.23;;;;;;;15.99;77.56;99807.86;1431453;91;21585;-83
2022/08/27 03:33:57;;;;;;;12.47;6.03;;;;;;;15.99;78.12;99808.38;1427600;91;22471;-83
2022/08/27 03:36:24;;;;;;;19.03;7.07;;;;;;;15.96;78.26;99808.27;1424511;91;22340;-85
2022/08/27 03:38:51;;;;;;;12.17;6.40;;;;;;;15.94;78.13;99809.48;1429716;91;22547;-84
2022/08/27 03:41:19;;;;;;;15.57;6.93;;;;;;;15.93;78.32;99815.84;1428276;91;21496;-83
2022/08/27 03:43:46;;;;;;;15.93;7.23;;;;;;;15.94;78.50;99817.00;1427945;91;21430;-86
2022/08/27 03:46:12;;;;;;;12.80;6.73;;;;;;;15.93;78.77;99814.52;1426461;91;21452;-83
2022/08/27 03:48:39;;;;;;;14.63;7.43;;;;;;;15.90;79.25;99815.73;1427427;91;22443;-83
2022/08/27 03:51:09;;;;;;;16.93;7.13;;;;;;;15.90;79.24;99816.24;1428686;91;21504;-85
2022/08/27 03:53:37;;;;;;;12.43;5.97;;;;;;;15.89;79.50;99816.76;1427515;91;21645;-85
2022/08/27 03:56:05;;;;;;;12.37;5.90;;;;;;;15.91;79.39;99817.39;1441681;91;21779;-82
2022/08/27 03:58:33;;;;;;;17.67;7.17;;;;;;;15.92;79.31;99817.70;1429090;91;21422;-85
2022/08/27 04:00:59;;;;;;;19.27;7.90;;;;;;;15.94;79.27;99817.00;1434224;91;21444;-83
2022/08/27 04:03:25;;;;;;;22.10;6.57;;;;;;;15.97;78.75;99819.78;1420557;91;21490;-84
2022/08/27 04:05:53;;;;;;;10.87;6.50;;;;;;;15.98;78.82;99821.42;1440587;91;22553;-84
2022/08/27 04:08:21;;;;;;;13.17;6.73;;;;;;;15.98;78.75;99817.42;1432735;91;21453;-84
2022/08/27 04:10:49;;;;;;;14.03;6.10;;;;;;;15.98;78.94;99816.08;1427749;91;21503;-84
2022/08/27 04:13:16;;;;;;;15.80;7.20;;;;;;;16.01;79.05;99825.03;1437174;91;22420;-83
2022/08/27 04:15:46;;;;;;;8.07;5.70;;;;;;;16.03;79.33;99825.66;1436335;91;22369;-83
2022/08/27 04:18:15;;;;;;;12.50;5.35;;;;;;;16.01;79.38;99827.19;1443863;91;21401;-84
2022/08/27 04:20:46;;;;;;;11.73;6.57;;;;;;;16.00;79.23;99826.88;1422325;91;21511;-83
2022/08/27 04:23:12;;;;;;;13.57;7.80;;;;;;;16.01;78.66;99831.70;1406959;91;22421;-84
2022/08/27 04:25:43;;;;;;;12.33;7.07;;;;;;;16.04;78.08;99831.30;1430808;91;21630;-84
2022/08/27 04:28:10;;;;;;;;;;;;;;;16.05;77.81;99832.94;1429020;91;21629;-80
2022/08/27 04:30:43;;;;;;;16.57;6.97;;;;;;;16.09;78.77;99836.88;1428402;91;20327;-84
2022/08/27 04:33:12;;;;;;;10.73;6.00;;;;;;;16.14;78.09;99831.78;1437131;90;21593;-84
2022/08/27 04:35:39;;;;;;;11.73;6.73;;;;;;;16.20;77.76;99830.16;1428356;91;22665;-85
2022/08/27 04:38:06;;;;;;;10.30;5.40;;;;;;;16.27;77.74;99836.86;1434215;91;21615;-86
2022/08/27 04:43:17;;;;;;;16.73;7.87;;;;;;;16.40;77.20;99835.55;1422219;91;22326;-84
2022/08/27 04:45:47;;;;;;;14.00;6.17;;;;;;;16.47;76.91;99835.08;1437552;91;21469;-82
2022/08/27 04:48:15;;;;;;;17.63;6.80;;;;;;;16.53;76.33;99838.28;1424453;91;21452;-84
2022/08/27 04:50:44;;;;;;;15.53;6.43;;;;;;;16.59;75.60;99837.48;1430870;91;21490;-83
2022/08/27 04:53:12;;;;;;;13.57;5.80;;;;;;;16.66;75.21;99835.66;1432636;91;22451;-85
2022/08/27 04:55:43;;;;;;;13.83;5.80;;;;;;;16.74;75.11;99828.47;1430115;91;22370;-83
2022/08/27 04:58:09;;;;;;;11.63;6.43;;;;;;;16.85;74.95;99835.92;1431483;91;21608;-82
2022/08/27 05:00:45;;;;;;;14.63;6.60;;;;;;;16.98;74.76;99835.14;1430442;91;21563;-82
2022/08/27 05:03:11;;;;;;;13.87;6.47;;;;;;;17.06;74.49;99833.59;1431726;91;21475;-84
2022/08/27 05:05:37;;;;;;;15.03;6.03;;;;;;;17.16;73.75;99837.21;1442092;91;21438;-83
2022/08/27 05:08:05;;;;;;;17.63;6.27;;;;;;;17.26;73.41;99834.94;1429471;91;21519;-80
2022/08/27 05:10:47;;;;;;;9.57;5.67;;;;;;;17.36;73.15;99838.85;1431331;91;21482;-82
2022/08/27 05:13:17;;;;;;;18.67;5.80;;;;;;;17.43;72.85;99838.84;1436462;91;22324;-82
2022/08/27 05:15:43;;;;;;;16.27;6.17;;;;;;;17.50;72.48;99834.84;1435482;91;21659;-83
2022/08/27 05:18:10;;;;;;;10.20;5.97;;;;;;;17.59;72.49;99838.42;1430338;91;22528;-82
2022/08/27 05:20:46;;;;;;;13.73;5.83;;;;;;;17.69;72.64;99839.84;1431641;91;21488;-82
2022/08/27 05:23:16;;;;;;;9.83;6.17;;;;;;;17.81;72.61;99827.53;1428496;91;21444;-82
2022/08/27 05:25:45;;;;;;;11.93;6.72;;;;;;;17.94;72.29;99826.14;1429259;91;21445;-82
2022/08/27 05:28:14;;;;;;;17.10;5.55;;;;;;;18.06;71.99;99835.67;1410612;91;21541;-82
2022/08/27 05:30:45;;;;;;;31.27;7.50;;;;;;;18.15;71.60;99833.06;1411925;91;21637;-84
2022/08/27 05:33:18;;;;;;;11.60;6.73;;;;;;;18.26;71.22;99831.07;1429758;91;21640;-82
2022/08/27 05:35:48;;;;;;;13.53;5.83;;;;;;;18.39;70.72;99832.89;1432987;91;21416;-82
2022/08/27 05:38:17;;;;;;;28.17;8.10;;;;;;;18.49;69.73;99827.88;1435269;91;21438;-81
2022/08/27 05:40:44;;;;;;;17.40;7.27;;;;;;;18.63;69.73;99835.86;1430041;91;22495;-80
2022/08/27 05:43:11;;;;;;;10.67;6.33;;;;;;;18.77;69.11;99840.14;1435720;91;21467;-81
2022/08/27 05:45:47;;;;;;;8.77;5.50;;;;;;;18.87;69.12;99829.77;1429019;91;21615;-83
2022/08/27 05:48:17;;;;;;;18.93;7.20;;;;;;;18.92;67.51;99827.24;1427466;91;21408;-85
2022/08/27 05:50:44;;;;;;;63.78;12.43;;;;;;;19.05;67.82;99826.88;1430727;91;21556;-81
2022/08/27 05:53:12;;;;;;;16.97;6.20;;;;;;;19.15;67.77;99827.19;1437515;91;21518;-86
2022/08/27 05:55:43;;;;;;;12.00;6.73;;;;;;;19.25;67.28;99827.53;1432030;91;21489;-89
2022/08/27 06:01:03;;;;;;;19.07;7.10;;;;;;;19.35;66.79;99828.38;1429820;91;21482;-87
2022/08/27 06:03:25;;;;;;;13.30;5.87;;;;;;;19.66;67.12;99830.19;1440749;91;21446;-89
2022/08/27 06:06:05;;;;;;;16.53;6.43;;;;;;;19.89;67.08;99829.54;1434176;91;21424;-87
2022/08/27 06:08:31;;;;;;;11.83;6.10;;;;;;;20.10;66.82;99828.27;1401685;92;21622;-90
2022/08/27 06:11:00;;;;;;;61.25;13.78;;;;;;;20.35;66.56;99828.70;1430501;91;21446;-86
2022/08/27 06:13:29;;;;;;;21.20;8.50;;;;;;;20.56;65.49;99826.08;1430075;91;21630;-90
2022/08/27 06:16:05;;;;;;;21.02;7.53;;;;;;;20.70;64.61;99825.66;1433095;91;22599;-89
2022/08/27 06:18:37;;;;;;;16.50;6.85;;;;;;;20.79;63.44;99826.16;1427432;91;21615;-90
2022/08/27 06:21:04;;;;;;;15.83;6.72;;;;;;;20.90;62.86;99828.06;1422074;91;21585;-87
2022/08/27 06:23:32;;;;;;;13.70;7.12;;;;;;;21.00;62.35;99828.02;1421920;91;22422;-83
2022/08/27 06:25:59;;;;;;;15.08;7.20;;;;;;;21.13;62.78;99825.95;1418487;91;21453;-86
2022/08/27 06:28:31;;;;;;;16.20;8.60;;;;;;;21.27;62.07;99816.33;1432890;91;21677;-87
2022/08/27 06:31:08;;;;;;;18.87;7.08;;;;;;;21.43;61.94;99816.99;1446477;91;23575;-85
2022/08/27 06:33:36;;;;;;;22.75;8.20;;;;;;;21.61;61.39;99822.81;1433229;91;21493;-86
2022/08/27 06:36:06;;;;;;;16.52;6.97;;;;;;;21.80;60.80;99826.18;1360155;91;22307;-84
2022/08/27 06:38:33;;;;;;;26.17;7.10;;;;;;;21.97;61.01;99823.58;1433894;91;22507;-85
2022/08/27 06:40:59;;;;;;;12.18;5.90;;;;;;;22.15;60.59;99822.59;1405261;91;21651;-84
2022/08/27 06:43:26;;;;;;;15.15;6.78;;;;;;;22.29;60.05;99822.11;1426982;91;21689;-86
2022/08/27 06:45:52;;;;;;;22.80;7.15;;;;;;;22.40;58.68;99827.72;1427706;91;22584;-87
2022/08/27 06:48:19;;;;;;;17.48;7.45;;;;;;;22.48;57.90;99828.70;1429000;91;21556;-84
2022/08/27 06:50:45;;;;;;;13.15;7.47;;;;;;;22.56;56.84;99837.75;1437390;91;21623;-83
2022/08/27 06:53:11;;;;;;;15.28;5.72;;;;;;;22.63;56.47;99832.20;1418621;91;21645;-85
2022/08/27 06:55:44;;;;;;;28.10;7.75;;;;;;;22.66;55.23;99833.88;1426409;91;21597;-84
2022/08/27 06:58:11;;;;;;;12.90;6.47;;;;;;;22.79;56.29;99833.29;1433943;91;21490;-86
2022/08/27 07:00:38;;;;;;;20.57;7.17;;;;;;;22.95;56.03;99833.89;1406911;91;21423;-85
2022/08/27 07:03:06;;;;;;;16.25;6.87;;;;;;;23.13;55.60;99834.19;1394862;92;21475;-83
2022/08/27 07:05:35;;;;;;;13.72;5.83;;;;;;;23.45;55.53;99826.86;1341096;92;21490;-85
2022/08/27 07:08:03;;;;;;;13.98;6.33;;;;;;;23.45;55.53;99826.86;1357768;92;21490;-82
2022/08/27 07:10:30;;;;;;;14.35;5.58;;;;;;;23.68;55.04;99829.90;1399662;91;21988;-83
2022/08/27 07:12:57;;;;;;;19.23;6.10;;;;;;;23.84;54.96;99832.60;1430415;91;22254;-81
2022/08/27 07:15:24;;;;;;;11.20;6.28;;;;;;;24.02;54.31;99836.08;1428484;91;21467;-82
2022/08/27 07:17:50;;;;;;;48.30;12.45;;;;;;;24.18;53.90;99831.16;1431780;91;21452;-81
2022/08/27 07:20:18;;;;;;;22.60;7.25;;;;;;;24.35;53.24;99832.44;1438746;91;21451;-83
2022/08/27 07:22:46;;;;;;;18.12;7.20;;;;;;;24.46;52.08;99838.28;1388847;91;21622;-84
2022/08/27 07:25:18;;;;;;;21.35;5.97;;;;;;;24.57;52.19;99836.52;1429602;91;21623;-84
2022/08/27 07:27:45;;;;;;;14.07;6.80;;;;;;;24.68;51.36;99834.17;1423681;91;21512;-83
2022/08/27 07:30:14;;;;;;;18.67;7.35;;;;;;;24.85;51.54;99835.42;1429782;91;22259;-83
2022/08/27 07:32:42;;;;;;;21.25;6.15;;;;;;;24.96;51.34;99839.05;1357327;91;22237;-83
2022/08/27 07:35:09;;;;;;;15.43;5.25;;;;;;;25.04;49.62;99839.94;1357806;91;22267;-81
2022/08/27 07:37:38;;;;;;;19.07;6.83;;;;;;;25.15;49.53;99841.70;1424179;91;21644;-84
2022/08/27 07:40:14;;;;;;;17.15;6.60;;;;;;;25.31;49.67;99842.63;1432642;90;22562;-85
2022/08/27 07:45:28;;;;;;;20.35;6.42;;;;;;;25.63;48.94;99847.18;1415433;91;21415;-80
2022/08/27 07:47:55;;;;;;;18.25;7.20;;;;;;;25.79;48.37;99839.43;1428243;91;21511;-83
2022/08/27 07:50:22;;;;;;;18.95;5.72;;;;;;;25.95;48.01;99843.59;1432629;91;21445;-82
2022/08/27 07:52:51;;;;;;;7.37;5.42;;;;;;;26.10;48.02;99847.22;1433770;91;21549;-84
2022/08/27 07:55:18;;;;;;;17.17;7.08;;;;;;;26.24;47.69;99844.84;1435494;91;21431;-84
2022/08/27 07:57:46;;;;;;;10.05;5.87;;;;;;;26.39;47.18;99853.58;1435322;91;21600;-85
2022/08/27 08:00:13;;;;;;;13.45;6.15;;;;;;;26.52;47.20;99840.87;1434357;91;22636;-86
2022/08/27 08:02:43;;;;;;;14.95;6.62;;;;;;;26.61;46.59;99835.73;1434807;91;21651;-86
2022/08/27 08:05:11;;;;;;;13.45;6.22;;;;;;;26.77;46.68;99842.03;1434609;91;21393;-87
2022/08/27 08:07:38;;;;;;;31.87;7.00;;;;;;;26.88;46.07;99838.25;1433488;91;21474;-87
2022/08/27 08:10:07;;;;;;;20.80;7.10;;;;;;;26.94;45.58;99842.59;1433435;91;21628;-86
2022/08/27 08:12:39;;;;;;;13.10;6.62;;;;;;;27.11;45.81;99846.41;1433776;91;21586;-85
2022/08/27 08:15:09;;;;;;;20.02;7.92;;;;;;;27.28;45.47;99847.53;1439918;91;21594;-87
2022/08/27 08:17:37;;;;;;;11.70;6.35;;;;;;;27.42;45.01;99855.41;1418497;91;21521;-88
2022/08/27 08:20:06;;;;;;;15.75;6.08;;;;;;;27.58;44.56;99850.75;1426746;91;21535;-88
2022/08/27 08:22:33;;;;;;;23.38;6.45;;;;;;;27.70;44.37;99851.81;1435415;91;21593;-86
2022/08/27 08:25:00;;;;;;;17.27;5.87;;;;;;;27.70;43.29;99847.73;1424501;91;21534;-80
2022/08/27 08:27:27;;;;;;;15.05;5.70;;;;;;;27.78;43.53;99852.62;1428993;91;21555;-79
2022/08/27 08:29:53;;;;;;;21.40;6.53;;;;;;;27.83;42.07;99849.92;1433851;91;22375;-81
2022/08/27 08:32:20;;;;;;;18.57;6.65;;;;;;;27.96;42.80;99855.86;1426728;91;21512;-80
2022/08/27 08:34:47;;;;;;;15.32;5.97;;;;;;;28.10;42.25;99849.55;1429920;91;21675;-79
2022/08/27 08:37:13;;;;;;;15.70;6.15;;;;;;;28.18;41.53;99854.98;1423685;91;21608;-79
2022/08/27 08:39:40;;;;;;;12.98;6.08;;;;;;;28.25;41.75;99851.39;1433424;91;21610;-79
2022/08/27 08:42:11;;;;;;;23.15;5.85;;;;;;;28.31;40.90;99850.83;1433621;91;21459;-79
2022/08/27 08:44:47;;;;;;;12.98;5.30;;;;;;;28.47;41.36;99852.97;1432706;91;21474;-78
2022/08/27 08:47:33;;;;;;;19.37;5.97;;;;;;;28.49;40.80;99854.88;1433804;91;21579;-79
2022/08/27 08:50:28;;;;;;;20.92;4.85;;;;;;;28.58;41.15;99852.38;1432075;91;21600;-78
2022/08/27 08:52:59;;;;;;;9.73;4.87;;;;;;;28.67;40.54;99851.50;1427524;91;22036;-77
2022/08/27 08:55:46;;;;;;;13.88;5.58;;;;;;;28.86;40.11;99848.09;1443474;91;21490;-79
2022/08/27 08:58:36;;;;;;;16.73;5.58;;;;;;;29.03;39.84;99850.46;1414666;92;21674;-78
2022/08/27 09:01:04;;;;;;;;;;;;;;;29.16;39.27;99850.63;1412632;91;21644;-78
2022/08/27 09:03:35;;;;;;;13.00;4.72;;;;;;;29.24;38.69;99850.02;1427377;91;20306;-79
2022/08/27 09:06:47;;;;;;;15.53;5.47;;;;;;;29.38;39.07;99853.47;1431721;91;21637;-79
2022/08/27 09:09:22;;;;;;;13.95;4.62;;;;;;;29.30;37.65;99850.80;1429178;91;21431;-79
2022/08/27 09:12:06;;;;;;;16.75;5.20;;;;;;;29.47;37.45;99844.92;1431100;91;21541;-79
2022/08/27 09:14:42;;;;;;;15.98;5.85;;;;;;;29.58;38.24;99843.73;1414241;91;21497;-79
2022/08/27 09:17:09;;;;;;;20.27;4.72;;;;;;;29.71;38.44;99846.34;1430532;91;22510;-78
2022/08/27 09:19:35;;;;;;;16.15;5.22;;;;;;;29.70;36.84;99843.92;1436260;91;21630;-78
2022/08/27 09:22:19;;;;;;;11.70;4.95;;;;;;;29.87;38.03;99844.28;1430632;91;22398;-78
2022/08/27 09:24:53;;;;;;;18.92;5.75;;;;;;;29.98;37.42;99844.42;1428687;91;21489;-78
2022/08/27 09:27:22;;;;;;;10.95;4.37;;;;;;;30.15;36.73;99838.46;1409157;92;22314;-78
2022/08/27 09:29:54;;;;;;;13.30;3.92;;;;;;;30.32;36.07;99839.38;1429182;91;21504;-79
2022/08/27 09:32:30;;;;;;;18.75;5.70;;;;;;;30.45;35.44;99834.56;1428472;91;21497;-79
2022/08/27 09:35:01;;;;;;;13.25;5.20;;;;;;;30.53;35.18;99833.91;1434972;91;22605;-78
2022/08/27 09:37:34;;;;;;;14.80;4.08;;;;;;;30.63;34.07;99833.50;1433901;91;21459;-77
2022/08/27 09:40:30;;;;;;;13.22;4.58;;;;;;;30.71;34.08;99832.28;1433477;91;21467;-78
2022/08/27 09:43:27;;;;;;;16.85;4.58;;;;;;;30.87;35.00;99826.61;1433630;91;21483;-79
2022/08/27 09:46:00;;;;;;;17.42;5.50;;;;;;;31.07;34.90;99830.38;1432134;91;21616;-78
2022/08/27 09:48:31;;;;;;;12.93;4.50;;;;;;;31.21;34.46;99829.06;1429357;91;21674;-78
2022/08/27 09:51:08;;;;;;;9.83;4.45;;;;;;;31.29;33.87;99825.64;1429848;91;21607;-78
2022/08/27 09:53:55;;;;;;;13.30;3.65;;;;;;;31.36;33.97;99826.11;1440653;91;21453;-79
2022/08/27 09:56:32;;;;;;;15.98;3.12;;;;;;;31.47;33.76;99824.79;1427924;91;21667;-79
2022/08/27 09:59:09;;;;;;;13.80;3.70;;;;;;;31.57;31.13;99819.70;1431785;91;21489;-78
2022/08/27 10:01:57;;;;;;;8.53;3.67;;;;;;;31.61;32.06;99824.00;1435896;91;21608;-79
2022/08/27 10:04:44;;;;;;;9.30;4.37;;;;;;;31.59;30.92;99819.39;1429575;91;22576;-78
2022/08/27 10:07:32;;;;;;;11.03;3.92;;;;;;;31.41;30.73;99823.83;1418242;92;21498;-79
2022/08/27 10:10:19;;;;;;;15.63;4.62;;;;;;;31.51;31.63;99824.21;1423055;91;21497;-79
2022/08/27 10:13:12;;;;;;;8.70;4.58;;;;;;;31.55;30.06;99823.85;1431632;91;22436;-79
2022/08/27 10:16:21;;;;;;;11.25;3.37;;;;;;;31.65;30.74;99824.48;1437614;91;22517;-79
2022/08/27 10:19:12;;;;;;;8.97;3.67;;;;;;;31.77;30.76;99818.51;1434431;91;21592;-79
2022/08/27 10:22:07;;;;;;;11.43;3.37;;;;;;;31.73;30.41;99818.84;1432866;90;21451;-79
2022/08/27 10:25:03;;;;;;;13.83;4.28;;;;;;;31.89;30.56;99821.54;1434940;90;22497;-80
2022/08/27 10:27:40;;;;;;;14.65;3.92;;;;;;;31.91;30.11;99816.61;1435401;91;22159;-79
2022/08/27 10:30:14;;;;;;;14.50;3.98;;;;;;;32.01;29.81;99821.62;1426897;91;21579;-79
2022/08/27 10:32:51;;;;;;;11.25;4.05;;;;;;;32.09;30.08;99820.91;1431755;91;21542;-79
2022/08/27 10:35:26;;;;;;;9.65;4.33;;;;;;;32.24;30.89;99806.08;1431242;91;21548;-79
2022/08/27 10:38:22;;;;;;;9.75;3.98;;;;;;;32.28;30.77;99807.91;1425994;91;21674;-80
2022/08/27 10:40:57;;;;;;;19.80;5.12;;;;;;;32.42;31.25;99810.59;1433891;91;21584;-79
2022/08/27 10:43:32;;;;;;;8.15;4.15;;;;;;;32.44;30.37;99815.77;1425433;91;22863;-80
2022/08/27 10:46:33;;;;;;;6.70;3.40;;;;;;;32.43;29.86;99812.23;1432265;91;21504;-79
2022/08/27 10:49:19;;;;;;;8.43;3.47;;;;;;;32.48;29.04;99809.95;1433031;91;21431;-79
2022/08/27 10:52:12;;;;;;;16.27;3.92;;;;;;;32.61;30.15;99809.11;1428809;90;22400;-79
2022/08/27 10:54:59;;;;;;;16.00;3.60;;;;;;;32.65;29.79;99808.73;1430925;91;21511;-79
2022/08/27 10:58:06;;;;;;;18.70;4.58;;;;;;;32.84;30.44;99805.02;1432395;91;22259;-79
2022/08/27 11:01:17;;;;;;;10.50;4.42;;;;;;;32.96;28.52;99799.78;1436663;91;21574;-79
2022/08/27 11:03:49;;;;;;;21.23;4.33;;;;;;;33.12;29.88;99794.77;1443996;90;22345;-79
2022/08/27 11:06:26;;;;;;;23.05;4.28;;;;;;;33.29;29.55;99794.03;1416540;92;22405;-78
2022/08/27 11:09:02;;;;;;;14.53;3.90;;;;;;;33.24;29.65;99791.68;1413774;91;23406;-82
2022/08/27 11:11:56;;;;;;;12.45;4.33;;;;;;;33.38;29.71;99790.23;1412775;91;21519;-81
2022/08/27 11:14:39;;;;;;;11.10;4.03;;;;;;;33.54;29.57;99787.89;1407150;92;21438;-83
2022/08/27 11:17:40;;;;;;;15.98;3.70;;;;;;;33.62;28.99;99790.43;1411512;93;21386;-80
2022/08/27 11:20:21;;;;;;;15.10;3.50;;;;;;;33.70;28.73;99789.66;1407387;93;21519;-80
2022/08/27 11:22:58;;;;;;;14.60;4.20;;;;;;;33.86;28.84;99785.90;1410106;92;21415;-80
2022/08/27 11:25:45;;;;;;;4.03;2.90;;;;;;;33.77;27.86;99789.19;1390118;92;21726;-80
2022/08/27 11:28:13;;;;;;;7.83;3.62;;;;;;;33.66;27.35;99792.77;1409003;93;21511;-80
2022/08/27 11:31:12;;;;;;;13.98;3.45;;;;;;;33.47;25.92;99780.66;1405468;92;22377;-79
2022/08/27 11:34:04;;;;;;;15.18;3.17;;;;;;;33.34;26.09;99780.19;1410352;93;21512;-80
2022/08/27 11:37:01;;;;;;;9.48;4.03;;;;;;;33.15;25.27;99781.23;1406268;91;21422;-80
2022/08/27 11:39:48;;;;;;;17.30;3.95;;;;;;;33.34;26.59;99777.45;1432954;91;21438;-80
2022/08/27 11:42:43;;;;;;;9.55;3.08;;;;;;;33.52;27.83;99783.30;1428084;91;21571;-80
2022/08/27 11:45:23;;;;;;;7.15;3.50;;;;;;;33.39;26.37;99771.83;1438123;91;21582;-80
2022/08/27 11:47:57;;;;;;;11.65;4.17;;;;;;;33.41;27.36;99775.08;1430294;91;21538;-80
2022/08/27 11:50:32;;;;;;;16.52;3.35;;;;;;;33.35;27.37;99768.92;1435718;91;22064;-80
2022/08/27 11:53:05;;;;;;;12.98;3.60;;;;;;;33.43;27.09;99771.44;1433064;91;21431;-79
2022/08/27 11:55:38;;;;;;;8.58;3.25;;;;;;;33.57;27.37;99779.03;1436169;91;21533;-80
2022/08/27 11:58:22;;;;;;;17.67;4.28;;;;;;;33.73;27.19;99775.88;1425571;91;21386;-80